createdAt,value
2018-03-03T00:02:16.188Z,98113.08
2018-03-03T00:04:43.660Z,98118.45
2018-03-03T00:07:11.157Z,98117.21
2018-03-03T00:09:39.432Z,98126.40
2018-03-03T00:12:06.955Z,98119.08
2018-03-03T00:14:34.583Z,98122.90
2018-03-03T00:17:02.081Z,98116.58
2018-03-03T00:19:29.563Z,98121.25
2018-03-03T00:21:57.129Z,98124.57
2018-03-03T00:24:24.853Z,98127.49
2018-03-03T00:26:52.329Z,98130.72
2018-03-03T00:29:19.818Z,98124.42
2018-03-03T00:31:47.341Z,98132.75
2018-03-03T00:34:15.082Z,98134.27
2018-03-03T00:36:42.576Z,98127.00
2018-03-03T00:39:10.084Z,98133.28
2018-03-03T00:41:37.542Z,98129.12
2018-03-03T00:44:05.021Z,98136.94
2018-03-03T00:46:32.495Z,98139.81
2018-03-03T00:48:59.973Z,98126.45
2018-03-03T00:51:27.440Z,98120.95
2018-03-03T00:53:54.903Z,98131.52
2018-03-03T00:56:22.471Z,98130.69
2018-03-03T00:58:49.992Z,98123.96
2018-03-03T01:01:17.460Z,98124.23
2018-03-03T01:03:44.933Z,98125.55
2018-03-03T01:06:12.431Z,98139.31
2018-03-03T01:08:40.120Z,98133.86
2018-03-03T01:11:07.599Z,98134.35
2018-03-03T01:13:35.070Z,98144.83
2018-03-03T01:16:02.533Z,98146.48
2018-03-03T01:18:30.060Z,98134.00
2018-03-03T01:20:57.518Z,98131.05
2018-03-03T01:23:25.047Z,98128.66
2018-03-03T01:25:52.522Z,98134.42
2018-03-03T01:28:19.986Z,98139.62
2018-03-03T01:30:47.470Z,98144.88
2018-03-03T01:33:15.069Z,98139.59
2018-03-03T01:35:42.541Z,98141.64
2018-03-03T01:38:10.036Z,98140.45
2018-03-03T01:40:37.563Z,98133.92
2018-03-03T01:43:05.059Z,98131.40
2018-03-03T01:45:32.524Z,98128.54
2018-03-03T01:48:00.008Z,98133.55
2018-03-03T01:50:27.524Z,98137.03
2018-03-03T01:52:54.992Z,98132.67
2018-03-03T01:55:22.533Z,98126.09
2018-03-03T01:57:50.020Z,98124.00
2018-03-03T02:00:17.479Z,98127.65
2018-03-03T02:02:44.974Z,98129.20
2018-03-03T02:05:12.480Z,98128.78
2018-03-03T02:07:39.953Z,98133.70
2018-03-03T02:10:07.440Z,98131.73
2018-03-03T02:12:34.927Z,98127.36
2018-03-03T02:15:02.413Z,98133.34
2018-03-03T02:17:29.934Z,98129.44
2018-03-03T02:19:57.543Z,98142.08
2018-03-03T02:22:25.012Z,98138.59
2018-03-03T02:24:52.503Z,98139.08
2018-03-03T02:27:19.955Z,98138.63
2018-03-03T02:29:47.432Z,98125.22
2018-03-03T02:32:15.019Z,98128.97
2018-03-03T02:34:42.492Z,98129.48
2018-03-03T02:37:09.974Z,98133.31
2018-03-03T02:39:37.457Z,98141.59
2018-03-03T02:42:04.930Z,98142.79
2018-03-03T02:44:32.401Z,98148.91
2018-03-03T02:46:59.988Z,98152.23
2018-03-03T02:49:27.443Z,98147.85
2018-03-03T02:51:54.922Z,98149.56
2018-03-03T02:54:22.438Z,98158.28
2018-03-03T02:56:49.943Z,98148.48
2018-03-03T02:59:17.400Z,98154.03
2018-03-03T03:01:44.875Z,98159.37
2018-03-03T03:04:12.340Z,98153.22
2018-03-03T03:06:39.818Z,98158.98
2018-03-03T03:09:07.312Z,98154.98
2018-03-03T03:11:34.795Z,98156.11
2018-03-03T03:14:02.248Z,98164.45
2018-03-03T03:16:30.619Z,98168.64
2018-03-03T03:18:58.097Z,98163.82
2018-03-03T03:21:25.553Z,98169.04
2018-03-03T03:23:53.074Z,98170.41
2018-03-03T03:26:20.544Z,98170.27
2018-03-03T03:28:48.004Z,98171.36
2018-03-03T03:31:15.489Z,98165.81
2018-03-03T03:33:42.967Z,98166.22
2018-03-03T03:36:10.443Z,98175.89
2018-03-03T03:38:37.899Z,98177.30
2018-03-03T03:41:05.405Z,98176.22
2018-03-03T03:43:32.920Z,98177.22
2018-03-03T03:46:00.428Z,98189.92
2018-03-03T03:48:27.906Z,98193.20
2018-03-03T03:50:55.385Z,98194.86
2018-03-03T03:53:22.835Z,98192.89
2018-03-03T03:55:50.340Z,98196.66
2018-03-03T03:58:17.795Z,98198.56
2018-03-03T04:00:45.267Z,98197.40
2018-03-03T04:03:12.871Z,98200.37
2018-03-03T04:05:40.343Z,98191.02
2018-03-03T04:08:07.809Z,98197.12
2018-03-03T04:10:35.299Z,98195.72
2018-03-03T04:13:02.792Z,98196.97
2018-03-03T04:15:30.357Z,98194.41
2018-03-03T04:17:57.871Z,98198.56
2018-03-03T04:20:25.490Z,98196.05
2018-03-03T04:22:52.955Z,98192.74
2018-03-03T04:25:20.446Z,98211.19
2018-03-03T04:27:47.931Z,98214.50
2018-03-03T04:30:15.407Z,98205.67
2018-03-03T04:32:42.865Z,98202.00
2018-03-03T04:35:10.380Z,98193.73
2018-03-03T04:37:37.942Z,98192.44
2018-03-03T04:40:05.451Z,98184.97
2018-03-03T04:42:32.946Z,98177.94
2018-03-03T04:45:00.421Z,98169.97
2018-03-03T04:47:27.895Z,98176.81
2018-03-03T04:49:55.353Z,98173.67
2018-03-03T04:52:22.866Z,98173.67
2018-03-03T04:54:50.347Z,98174.39
2018-03-03T04:57:17.805Z,98174.47
2018-03-03T05:02:54.422Z,98163.70
2018-03-03T05:05:26.379Z,98172.53
2018-03-03T05:07:55.764Z,98176.61
2018-03-03T05:10:23.690Z,98171.11
2018-03-03T05:16:17.584Z,98174.78
2018-03-03T05:18:51.526Z,98170.93
2018-03-03T05:21:23.548Z,98174.83
2018-03-03T05:23:56.487Z,98168.14
2018-03-03T05:29:38.144Z,98168.03
2018-03-03T05:32:11.122Z,98168.83
2018-03-03T05:37:48.609Z,98183.38
2018-03-03T05:40:21.622Z,98172.86
2018-03-03T05:45:55.940Z,98159.50
2018-03-03T05:48:38.294Z,98168.62
2018-03-03T05:51:09.383Z,98172.11
2018-03-03T05:53:40.286Z,98186.22
2018-03-03T05:56:21.562Z,98190.41
2018-03-03T05:58:57.555Z,98193.27
2018-03-03T06:01:30.605Z,98196.84
2018-03-03T06:04:03.739Z,98202.19
2018-03-03T06:06:32.134Z,98196.86
2018-03-03T06:09:14.655Z,98195.17
2018-03-03T06:11:42.180Z,98189.85
2018-03-03T06:14:09.653Z,98196.09
2018-03-03T06:16:37.175Z,98194.65
2018-03-03T06:19:04.632Z,98185.72
2018-03-03T06:21:32.088Z,98182.59
2018-03-03T06:23:59.542Z,98186.80
2018-03-03T06:26:27.028Z,98183.98
2018-03-03T06:28:54.480Z,98192.42
2018-03-03T06:31:21.958Z,98189.79
2018-03-03T06:33:49.449Z,98193.73
2018-03-03T06:36:16.918Z,98190.67
2018-03-03T06:38:44.402Z,98185.59
2018-03-03T06:41:11.875Z,98193.19
2018-03-03T06:43:39.383Z,98196.48
2018-03-03T06:46:06.927Z,98199.73
2018-03-03T06:48:34.418Z,98203.61
2018-03-03T06:51:01.932Z,98202.42
2018-03-03T06:53:29.406Z,98191.27
2018-03-03T06:55:56.903Z,98185.95
2018-03-03T06:58:24.386Z,98185.44
2018-03-03T07:00:52.663Z,98188.95
2018-03-03T07:03:20.138Z,98184.38
2018-03-03T07:05:47.604Z,98180.91
2018-03-03T07:08:15.279Z,98180.16
2018-03-03T07:10:42.786Z,98179.46
2018-03-03T07:13:10.265Z,98172.70
2018-03-03T07:15:37.770Z,98171.91
2018-03-03T07:18:05.289Z,98161.65
2018-03-03T07:20:33.252Z,98167.64
2018-03-03T07:23:00.735Z,98168.50
2018-03-03T07:25:28.246Z,98172.03
2018-03-03T07:27:55.752Z,98167.54
2018-03-03T07:30:27.721Z,98166.66
2018-03-03T07:32:55.232Z,98169.61
2018-03-03T07:35:22.709Z,98170.16
2018-03-03T07:37:50.197Z,98175.72
2018-03-03T07:40:17.677Z,98170.67
2018-03-03T07:42:45.237Z,98166.69
2018-03-03T07:45:12.719Z,98168.67
2018-03-03T07:47:40.273Z,98166.29
2018-03-03T07:50:07.749Z,98163.09
2018-03-03T07:52:35.454Z,98169.13
2018-03-03T07:55:02.992Z,98173.41
2018-03-03T07:57:30.487Z,98176.75
2018-03-03T07:59:57.991Z,98173.03
2018-03-03T08:02:25.465Z,98164.33
2018-03-03T08:04:52.968Z,98172.50
2018-03-03T08:07:20.676Z,98167.11
2018-03-03T08:09:48.192Z,98170.64
2018-03-03T08:12:15.674Z,98168.64
2018-03-03T08:14:43.157Z,98164.34
2018-03-03T08:17:13.025Z,98166.12
2018-03-03T08:19:42.152Z,98176.08
2018-03-03T08:22:09.701Z,98169.34
2018-03-03T08:24:38.866Z,98165.47
2018-03-03T08:27:06.583Z,98167.67
2018-03-03T08:29:39.733Z,98176.05
2018-03-03T08:32:07.248Z,98171.91
2018-03-03T08:34:35.222Z,98170.38
2018-03-03T08:37:02.744Z,98165.89
2018-03-03T08:39:30.241Z,98165.48
2018-03-03T08:41:57.770Z,98173.52
2018-03-03T08:44:25.294Z,98173.13
2018-03-03T08:46:54.104Z,98171.44
2018-03-03T08:49:21.639Z,98175.55
2018-03-03T08:51:49.289Z,98177.33
2018-03-03T08:54:16.783Z,98173.59
2018-03-03T08:56:44.299Z,98166.86
2018-03-03T08:59:11.848Z,98164.33
2018-03-03T09:01:39.359Z,98160.99
2018-03-03T09:04:06.856Z,98168.42
2018-03-03T09:06:34.433Z,98165.06
2018-03-03T09:09:01.940Z,98166.88
2018-03-03T09:11:29.409Z,98164.84
2018-03-03T09:13:56.882Z,98169.91
2018-03-03T09:16:24.367Z,98173.70
2018-03-03T09:18:51.846Z,98164.48
2018-03-03T09:21:19.386Z,98167.86
2018-03-03T09:23:46.867Z,98159.90
2018-03-03T09:26:14.597Z,98151.10
2018-03-03T09:28:42.091Z,98151.51
2018-03-03T09:31:09.576Z,98143.95
2018-03-03T09:33:37.127Z,98135.56
2018-03-03T09:36:04.675Z,98142.27
2018-03-03T09:38:32.350Z,98141.84
2018-03-03T09:40:59.807Z,98141.02
2018-03-03T09:43:27.392Z,98134.30
2018-03-03T09:45:54.852Z,98144.80
2018-03-03T09:48:22.332Z,98153.59
2018-03-03T09:50:49.829Z,98156.53
2018-03-03T09:53:17.370Z,98168.73
2018-03-03T09:55:44.865Z,98174.58
2018-03-03T09:58:12.453Z,98178.79
2018-03-03T10:00:39.964Z,98180.05
2018-03-03T10:03:07.520Z,98171.23
2018-03-03T10:05:35.029Z,98177.53
2018-03-03T10:08:02.519Z,98171.63
2018-03-03T10:10:30.187Z,98176.70
2018-03-03T10:12:57.655Z,98166.17
2018-03-03T10:15:25.133Z,98162.42
2018-03-03T10:17:52.629Z,98157.75
2018-03-03T10:20:20.102Z,98156.07
2018-03-03T10:22:47.574Z,98150.13
2018-03-03T10:25:15.399Z,98145.39
2018-03-03T10:27:42.863Z,98141.55
2018-03-03T10:30:10.360Z,98137.75
2018-03-03T10:32:37.854Z,98133.67
2018-03-03T10:35:05.396Z,98131.98
2018-03-03T10:37:32.911Z,98135.80
2018-03-03T10:40:00.428Z,98134.48
2018-03-03T10:42:28.021Z,98135.31
2018-03-03T10:44:55.520Z,98132.78
2018-03-03T10:47:23.064Z,98126.35
2018-03-03T10:49:50.520Z,98118.72
2018-03-03T10:52:17.999Z,98119.94
2018-03-03T10:54:45.641Z,98116.45
2018-03-03T10:57:13.202Z,98112.95
2018-03-03T10:59:40.672Z,98105.09
2018-03-03T11:02:08.112Z,98101.61
2018-03-03T11:04:35.588Z,98103.68
2018-03-03T11:07:03.058Z,98102.72
2018-03-03T11:09:30.574Z,98099.66
2018-03-03T11:11:58.055Z,98100.70
2018-03-03T11:14:25.572Z,98101.84
2018-03-03T11:16:53.034Z,98097.34
2018-03-03T11:19:20.558Z,98089.34
2018-03-03T11:21:48.024Z,98093.08
2018-03-03T11:24:15.505Z,98095.53
2018-03-03T11:26:43.087Z,98099.34
2018-03-03T11:29:10.567Z,98092.11
2018-03-03T11:31:38.047Z,98089.53
2018-03-03T11:34:05.523Z,98095.05
2018-03-03T11:36:32.979Z,98090.45
2018-03-03T11:39:00.445Z,98086.69
2018-03-03T11:41:27.914Z,98090.47
2018-03-03T11:43:55.411Z,98076.06
2018-03-03T11:46:22.912Z,98077.50
2018-03-03T11:48:50.466Z,98074.98
2018-03-03T11:51:18.006Z,98075.42
2018-03-03T11:53:45.531Z,98082.20
2018-03-03T11:56:13.165Z,98072.95
2018-03-03T12:14:52.686Z,98068.05
2018-03-03T12:17:20.222Z,98069.95
2018-03-03T12:19:47.744Z,98073.47
2018-03-03T12:22:15.349Z,98067.88
2018-03-03T12:24:43.007Z,98067.37
2018-03-03T12:27:11.036Z,98069.48
2018-03-03T12:29:38.547Z,98065.05
2018-03-03T12:32:06.017Z,98068.31
2018-03-03T12:34:33.539Z,98073.16
2018-03-03T12:37:01.095Z,98063.36
2018-03-03T12:39:28.584Z,98074.61
2018-03-03T12:41:56.072Z,98069.50
2018-03-03T12:44:23.525Z,98070.28
2018-03-03T12:46:51.007Z,98060.66
2018-03-03T12:49:18.547Z,98057.61
2018-03-03T12:51:46.018Z,98055.55
2018-03-03T12:54:13.477Z,98056.70
2018-03-03T12:56:40.939Z,98052.69
2018-03-03T12:59:08.396Z,98060.66
2018-03-03T13:01:35.880Z,98056.03
2018-03-03T13:04:03.360Z,98051.48
2018-03-03T13:06:30.815Z,98051.79
2018-03-03T13:08:58.284Z,98055.32
2018-03-03T13:11:25.787Z,98051.55
2018-03-03T13:13:53.275Z,98056.80
2018-03-03T13:16:20.779Z,98060.66
2018-03-03T13:18:48.243Z,98051.50
2018-03-03T13:21:15.759Z,98044.50
2018-03-03T13:23:43.238Z,98044.17
2018-03-03T13:26:10.693Z,98040.11
2018-03-03T13:28:38.164Z,98035.16
2018-03-03T13:31:05.618Z,98044.95
2018-03-03T13:33:33.160Z,98052.58
2018-03-03T13:36:00.633Z,98049.61
2018-03-03T13:38:28.126Z,98037.94
2018-03-03T13:40:55.590Z,98035.41
2018-03-03T13:43:24.307Z,98035.39
2018-03-03T13:45:55.707Z,98029.03
2018-03-03T13:48:23.314Z,98026.02
2018-03-03T13:50:56.307Z,98025.42
2018-03-03T13:53:23.820Z,98020.20
2018-03-03T13:55:51.275Z,98013.55
2018-03-03T13:58:18.787Z,98011.09
2018-03-03T14:00:46.271Z,98015.88
2018-03-03T14:03:13.716Z,98021.00
2018-03-03T14:05:41.216Z,98026.95
2018-03-03T14:08:08.697Z,98023.61
2018-03-03T14:10:36.207Z,98019.87
2018-03-03T14:13:03.691Z,98023.64
2018-03-03T14:15:31.169Z,98027.44
2018-03-03T14:17:58.704Z,98027.02
2018-03-03T14:20:27.894Z,98026.56
2018-03-03T14:22:56.541Z,98020.32
2018-03-03T14:25:24.643Z,98016.94
2018-03-03T14:27:55.712Z,98016.49
2018-03-03T14:30:23.823Z,98018.63
2018-03-03T14:32:55.384Z,98022.82
2018-03-03T14:35:30.028Z,98024.97
2018-03-03T14:38:00.108Z,98025.83
2018-03-03T14:40:28.862Z,98013.16
2018-03-03T14:42:57.311Z,98015.95
2018-03-03T14:45:27.104Z,98028.16
2018-03-03T14:47:54.606Z,98030.28
2018-03-03T14:50:22.163Z,98030.69
2018-03-03T14:52:49.636Z,98037.81
2018-03-03T14:55:17.089Z,98039.03
2018-03-03T14:57:44.596Z,98039.52
2018-03-03T15:00:12.131Z,98045.86
2018-03-03T15:02:40.430Z,98049.22
2018-03-03T15:05:07.907Z,98045.47
2018-03-03T15:07:35.388Z,98041.28
2018-03-03T15:10:02.877Z,98035.41
2018-03-03T15:12:30.355Z,98039.98
2018-03-03T15:14:57.846Z,98024.52
2018-03-03T15:17:25.315Z,98029.59
2018-03-03T15:19:52.827Z,98026.67
2018-03-03T15:22:20.336Z,98029.20
2018-03-03T15:24:48.091Z,98021.63
2018-03-03T15:27:16.447Z,98027.44
2018-03-03T15:29:43.971Z,98026.67
2018-03-03T15:32:11.454Z,98023.27
2018-03-03T15:34:38.898Z,98020.34
2018-03-03T15:37:06.361Z,98024.19
2018-03-03T15:39:33.885Z,98014.97
2018-03-03T15:42:01.351Z,98008.28
2018-03-03T15:44:28.837Z,97999.95
2018-03-03T15:46:56.340Z,98006.27
2018-03-03T15:49:23.818Z,98012.59
2018-03-03T15:51:51.286Z,98014.25
2018-03-03T15:54:18.748Z,98013.81
2018-03-03T15:56:46.204Z,98012.55
2018-03-03T15:59:13.701Z,98013.00
2018-03-03T16:01:41.207Z,98016.80
2018-03-03T16:04:08.689Z,98009.70
2018-03-03T16:06:36.256Z,98013.49
2018-03-03T16:09:03.835Z,98012.23
2018-03-03T16:11:31.293Z,98018.13
2018-03-03T16:13:58.795Z,98019.81
2018-03-03T16:16:26.276Z,98014.36
2018-03-03T16:18:53.819Z,98016.45
2018-03-03T16:21:22.476Z,98023.58
2018-03-03T16:23:50.024Z,98025.24
2018-03-03T16:26:17.814Z,98014.77
2018-03-03T16:28:45.352Z,98020.66
2018-03-03T16:31:12.822Z,98026.91
2018-03-03T16:33:40.416Z,98022.72
2018-03-03T16:36:07.902Z,98011.42
2018-03-03T16:38:35.403Z,98026.91
2018-03-03T16:41:02.871Z,98034.45
2018-03-03T16:43:30.412Z,98041.14
2018-03-03T16:45:57.889Z,98041.58
2018-03-03T16:48:25.906Z,98043.23
2018-03-03T16:50:53.398Z,98049.48
2018-03-03T16:53:20.927Z,98048.27
2018-03-03T16:55:48.399Z,98048.27
2018-03-03T16:58:16.491Z,98047.84
2018-03-03T17:00:45.171Z,98049.53
2018-03-03T17:03:12.681Z,98054.11
2018-03-03T17:05:40.174Z,98058.72
2018-03-03T17:08:07.661Z,98057.45
2018-03-03T17:10:35.107Z,98060.38
2018-03-03T17:13:02.598Z,98057.84
2018-03-03T17:15:30.111Z,98059.92
2018-03-03T17:17:57.606Z,98061.22
2018-03-03T17:20:25.114Z,98067.06
2018-03-03T17:22:52.661Z,98065.79
2018-03-03T17:25:20.154Z,98067.88
2018-03-03T17:27:49.125Z,98070.39
2018-03-03T17:30:16.672Z,98072.51
2018-03-03T17:32:44.147Z,98067.87
2018-03-03T17:35:11.601Z,98073.67
2018-03-03T17:37:39.085Z,98076.19
2018-03-03T17:40:06.565Z,98083.33
2018-03-03T17:42:34.056Z,98083.31
2018-03-03T17:45:01.623Z,98079.09
2018-03-03T17:47:29.072Z,98078.27
2018-03-03T17:49:56.564Z,98079.87
2018-03-03T17:52:24.793Z,98087.87
2018-03-03T17:54:52.348Z,98091.19
2018-03-03T17:57:19.831Z,98088.25
2018-03-03T17:59:47.320Z,98097.45
2018-03-03T18:02:14.810Z,98099.50
2018-03-03T18:04:42.275Z,98095.30
2018-03-03T18:07:09.846Z,98093.20
2018-03-03T18:09:37.298Z,98103.22
2018-03-03T18:12:05.716Z,98101.11
2018-03-03T18:14:35.770Z,98101.06
2018-03-03T18:17:03.395Z,98106.10
2018-03-03T18:19:34.405Z,98113.66
2018-03-03T18:22:01.912Z,98115.78
2018-03-03T18:24:37.461Z,98118.66
2018-03-03T18:27:04.934Z,98132.86
2018-03-03T18:29:32.426Z,98128.20
2018-03-03T18:31:59.913Z,98128.56
2018-03-03T18:34:27.392Z,98140.72
2018-03-03T18:36:55.116Z,98133.98
2018-03-03T18:39:22.723Z,98139.78
2018-03-03T18:41:50.593Z,98144.80
2018-03-03T18:44:18.280Z,98150.31
2018-03-03T18:46:46.177Z,98145.30
2018-03-03T18:49:13.679Z,98148.59
2018-03-03T18:51:41.300Z,98154.34
2018-03-03T18:54:08.784Z,98157.20
2018-03-03T18:56:38.004Z,98165.59
2018-03-03T18:59:05.742Z,98176.00
2018-03-03T19:01:33.327Z,98165.98
2018-03-03T19:04:00.882Z,98164.64
2018-03-03T19:06:28.443Z,98165.48
2018-03-03T19:08:55.986Z,98173.06
2018-03-03T19:11:23.560Z,98176.02
2018-03-03T19:13:51.110Z,98177.22
2018-03-03T19:16:18.656Z,98182.22
2018-03-03T19:18:46.753Z,98182.19
2018-03-03T19:21:14.334Z,98189.35
2018-03-03T19:23:47.197Z,98196.03
2018-03-03T19:26:14.866Z,98193.90
2018-03-03T19:28:42.531Z,98203.81
2018-03-03T19:31:11.086Z,98210.98
2018-03-03T19:33:38.811Z,98203.87
2018-03-03T19:36:06.320Z,98215.58
2018-03-03T19:38:33.916Z,98213.88
2018-03-03T19:41:01.414Z,98228.08
2018-03-03T19:43:28.887Z,98220.12
2018-03-03T19:45:56.359Z,98225.17
2018-03-03T19:48:28.860Z,98232.66
2018-03-03T19:50:56.863Z,98232.28
2018-03-03T19:53:24.384Z,98242.25
2018-03-03T19:55:52.225Z,98238.04
2018-03-03T19:58:20.124Z,98237.21
2018-03-03T20:00:47.855Z,98241.47
2018-03-03T20:03:15.718Z,98247.61
2018-03-03T20:05:43.256Z,98245.47
2018-03-03T20:08:10.819Z,98259.52
2018-03-03T20:10:38.294Z,98253.34
2018-03-03T20:13:05.975Z,98262.95
2018-03-03T20:15:33.461Z,98269.21
2018-03-03T20:18:00.958Z,98268.75
2018-03-03T20:20:28.564Z,98269.54
2018-03-03T20:22:56.072Z,98274.57
2018-03-03T20:25:23.710Z,98274.94
2018-03-03T20:27:51.169Z,98268.63
2018-03-03T20:30:18.652Z,98272.75
2018-03-03T20:32:46.752Z,98282.01
2018-03-03T20:35:14.225Z,98277.86
2018-03-03T20:37:41.714Z,98289.44
2018-03-03T20:40:09.206Z,98288.04
2018-03-03T20:42:36.732Z,98283.20
2018-03-03T20:45:04.201Z,98284.49
2018-03-03T20:47:31.684Z,98286.22
2018-03-03T20:49:59.245Z,98284.06
2018-03-03T20:52:26.768Z,98285.73
2018-03-03T20:54:54.272Z,98284.88
2018-03-03T20:57:21.795Z,98292.42
2018-03-03T20:59:49.341Z,98291.17
2018-03-03T21:02:16.973Z,98293.65
2018-03-03T21:04:44.439Z,98296.13
2018-03-03T21:07:11.933Z,98284.39
2018-03-03T21:09:39.432Z,98287.72
2018-03-03T21:12:08.454Z,98292.18
2018-03-03T21:14:36.133Z,98293.02
2018-03-03T21:17:03.594Z,98299.33
2018-03-03T21:19:31.052Z,98300.38
2018-03-03T21:21:58.695Z,98306.02
2018-03-03T21:24:26.255Z,98307.55
2018-03-03T21:26:53.791Z,98307.08
2018-03-03T21:29:21.304Z,98311.20
2018-03-03T21:31:48.896Z,98323.56
2018-03-03T21:34:16.436Z,98327.36
2018-03-03T21:36:44.060Z,98332.95
2018-03-03T21:39:11.828Z,98331.99
2018-03-03T21:41:39.354Z,98326.56
2018-03-03T21:44:06.936Z,98337.86
2018-03-03T21:46:35.282Z,98343.02
2018-03-03T21:49:03.468Z,98348.05
2018-03-03T21:51:30.972Z,98346.14
2018-03-03T21:53:58.429Z,98353.71
2018-03-03T21:56:26.006Z,98370.75
2018-03-03T21:58:53.636Z,98361.79
2018-03-03T22:01:21.125Z,98367.84
2018-03-03T22:03:48.601Z,98376.63
2018-03-03T22:06:16.947Z,98379.95
2018-03-03T22:08:44.542Z,98378.09
2018-03-03T22:11:12.039Z,98381.45
2018-03-03T22:13:39.601Z,98381.53
2018-03-03T22:16:07.094Z,98388.38
2018-03-03T22:18:34.556Z,98398.50
2018-03-03T22:21:02.068Z,98398.13
2018-03-03T22:23:29.562Z,98399.75
2018-03-03T22:25:57.141Z,98405.81
2018-03-03T22:28:24.647Z,98401.16
2018-03-03T22:30:52.196Z,98395.83
2018-03-03T22:33:19.725Z,98408.52
2018-03-03T22:35:47.279Z,98412.72
2018-03-03T22:38:15.002Z,98406.73
2018-03-03T22:40:42.554Z,98408.03
2018-03-03T22:43:10.031Z,98409.23
2018-03-03T22:45:37.528Z,98417.68
2018-03-03T22:48:05.582Z,98418.69
2018-03-03T22:50:33.905Z,98420.99
2018-03-03T22:53:01.447Z,98423.71
2018-03-03T22:55:29.019Z,98419.52
2018-03-03T22:57:56.497Z,98417.98
2018-03-03T23:00:27.273Z,98426.28
2018-03-03T23:02:54.914Z,98424.98
2018-03-03T23:05:22.390Z,98434.28
2018-03-03T23:07:49.904Z,98430.05
2018-03-03T23:12:49.121Z,98436.56
2018-03-03T23:15:16.662Z,98441.37
2018-03-03T23:17:44.178Z,98441.84
2018-03-03T23:20:12.665Z,98440.92
2018-03-03T23:22:40.208Z,98442.39
2018-03-03T23:25:07.834Z,98444.14
2018-03-03T23:27:37.946Z,98444.95
2018-03-03T23:30:05.437Z,98454.05
2018-03-03T23:32:33.019Z,98453.77
2018-03-03T23:35:00.507Z,98453.75
2018-03-03T23:37:27.982Z,98466.39
2018-03-03T23:39:56.021Z,98466.28
2018-03-03T23:42:23.880Z,98462.64
2018-03-03T23:44:52.175Z,98466.27
2018-03-03T23:47:19.680Z,98466.02
2018-03-03T23:49:47.231Z,98461.97
2018-03-03T23:52:14.977Z,98464.84
2018-03-03T23:54:43.649Z,98465.84
2018-03-03T23:57:11.202Z,98469.16
2018-03-03T23:59:38.754Z,98474.77
